sensor_id;sensor_type;location;lat;lon;timestamp;P1;durP1;ratioP1;P2;durP2;ratioP2
8007;SDS011;4049;49.468;11.200;2023-12-29T00:00:11;3.87;;;2.70;;
8007;SDS011;4049;49.468;11.200;2023-12-29T00:02:38;4.10;;;3.30;;
8007;SDS011;4049;49.468;11.200;2023-12-29T00:05:05;4.97;;;3.30;;
8007;SDS011;4049;49.468;11.200;2023-12-29T00:07:33;4.47;;;2.80;;
8007;SDS011;4049;49.468;11.200;2023-12-29T00:09:59;4.47;;;3.27;;
8007;SDS011;4049;49.468;11.200;2023-12-29T00:12:26;4.37;;;2.80;;
8007;SDS011;4049;49.468;11.200;2023-12-29T00:14:53;4.10;;;3.07;;
8007;SDS011;4049;49.468;11.200;2023-12-29T00:17:21;5.90;;;3.17;;
8007;SDS011;4049;49.468;11.200;2023-12-29T00:19:47;3.27;;;2.70;;
8007;SDS011;4049;49.468;11.200;2023-12-29T00:22:14;3.53;;;2.57;;
8007;SDS011;4049;49.468;11.200;2023-12-29T00:24:41;3.90;;;2.60;;
8007;SDS011;4049;49.468;11.200;2023-12-29T00:27:07;4.57;;;2.80;;
8007;SDS011;4049;49.468;11.200;2023-12-29T00:29:34;3.23;;;2.50;;
8007;SDS011;4049;49.468;11.200;2023-12-29T00:32:01;3.30;;;2.40;;
8007;SDS011;4049;49.468;11.200;2023-12-29T00:34:31;3.80;;;2.60;;
8007;SDS011;4049;49.468;11.200;2023-12-29T00:36:57;3.73;;;2.77;;
8007;SDS011;4049;49.468;11.200;2023-12-29T00:39:24;2.90;;;2.30;;
8007;SDS011;4049;49.468;11.200;2023-12-29T00:41:54;3.63;;;2.57;;
8007;SDS011;4049;49.468;11.200;2023-12-29T00:44:22;3.07;;;2.30;;
8007;SDS011;4049;49.468;11.200;2023-12-29T00:46:49;4.90;;;3.03;;
8007;SDS011;4049;49.468;11.200;2023-12-29T00:49:15;4.33;;;2.70;;
8007;SDS011;4049;49.468;11.200;2023-12-29T00:51:44;3.90;;;2.67;;
8007;SDS011;4049;49.468;11.200;2023-12-29T00:54:11;3.73;;;2.90;;
8007;SDS011;4049;49.468;11.200;2023-12-29T00:56:37;4.47;;;2.83;;
8007;SDS011;4049;49.468;11.200;2023-12-29T00:59:04;3.33;;;2.60;;
8007;SDS011;4049;49.468;11.200;2023-12-29T01:01:33;3.40;;;2.57;;
8007;SDS011;4049;49.468;11.200;2023-12-29T01:04:00;4.17;;;2.80;;
8007;SDS011;4049;49.468;11.200;2023-12-29T01:06:27;3.60;;;3.13;;
8007;SDS011;4049;49.468;11.200;2023-12-29T01:08:55;4.07;;;2.70;;
8007;SDS011;4049;49.468;11.200;2023-12-29T01:11:22;4.93;;;3.30;;
8007;SDS011;4049;49.468;11.200;2023-12-29T01:13:49;3.03;;;2.60;;
8007;SDS011;4049;49.468;11.200;2023-12-29T01:16:16;3.53;;;2.70;;
8007;SDS011;4049;49.468;11.200;2023-12-29T01:18:42;4.83;;;2.50;;
8007;SDS011;4049;49.468;11.200;2023-12-29T01:21:09;6.53;;;2.53;;
8007;SDS011;4049;49.468;11.200;2023-12-29T01:23:36;3.50;;;2.30;;
8007;SDS011;4049;49.468;11.200;2023-12-29T01:26:04;2.87;;;2.40;;
8007;SDS011;4049;49.468;11.200;2023-12-29T01:28:31;3.17;;;2.50;;
8007;SDS011;4049;49.468;11.200;2023-12-29T01:30:58;3.43;;;2.17;;
8007;SDS011;4049;49.468;11.200;2023-12-29T01:33:25;3.90;;;2.30;;
8007;SDS011;4049;49.468;11.200;2023-12-29T01:35:51;3.97;;;2.40;;
8007;SDS011;4049;49.468;11.200;2023-12-29T01:38:17;3.23;;;2.20;;
8007;SDS011;4049;49.468;11.200;2023-12-29T01:40:44;2.80;;;2.20;;
8007;SDS011;4049;49.468;11.200;2023-12-29T01:43:13;3.20;;;2.30;;
8007;SDS011;4049;49.468;11.200;2023-12-29T01:45:40;3.10;;;2.23;;
8007;SDS011;4049;49.468;11.200;2023-12-29T01:48:07;3.80;;;2.30;;
8007;SDS011;4049;49.468;11.200;2023-12-29T01:50:34;4.17;;;2.20;;
8007;SDS011;4049;49.468;11.200;2023-12-29T01:53:02;3.20;;;2.33;;
8007;SDS011;4049;49.468;11.200;2023-12-29T01:55:31;2.40;;;2.20;;
8007;SDS011;4049;49.468;11.200;2023-12-29T01:57:59;4.17;;;2.53;;
8007;SDS011;4049;49.468;11.200;2023-12-29T02:00:29;3.00;;;2.37;;
8007;SDS011;4049;49.468;11.200;2023-12-29T02:02:57;2.83;;;2.33;;
8007;SDS011;4049;49.468;11.200;2023-12-29T02:05:24;4.03;;;2.53;;
8007;SDS011;4049;49.468;11.200;2023-12-29T02:07:52;3.63;;;2.80;;
8007;SDS011;4049;49.468;11.200;2023-12-29T02:10:19;3.50;;;2.80;;
8007;SDS011;4049;49.468;11.200;2023-12-29T02:12:47;5.50;;;2.30;;
8007;SDS011;4049;49.468;11.200;2023-12-29T02:15:15;4.10;;;2.70;;
8007;SDS011;4049;49.468;11.200;2023-12-29T02:17:45;3.67;;;2.57;;
8007;SDS011;4049;49.468;11.200;2023-12-29T02:20:17;3.90;;;2.73;;
8007;SDS011;4049;49.468;11.200;2023-12-29T02:22:45;3.93;;;3.00;;
8007;SDS011;4049;49.468;11.200;2023-12-29T02:25:13;4.13;;;2.57;;
8007;SDS011;4049;49.468;11.200;2023-12-29T02:27:42;4.00;;;2.70;;
8007;SDS011;4049;49.468;11.200;2023-12-29T02:30:16;3.90;;;2.83;;
8007;SDS011;4049;49.468;11.200;2023-12-29T02:32:47;6.37;;;3.50;;
8007;SDS011;4049;49.468;11.200;2023-12-29T02:35:18;2.83;;;2.53;;
8007;SDS011;4049;49.468;11.200;2023-12-29T02:37:48;4.40;;;3.23;;
8007;SDS011;4049;49.468;11.200;2023-12-29T02:40:16;3.80;;;2.60;;
8007;SDS011;4049;49.468;11.200;2023-12-29T02:42:44;4.70;;;3.37;;
8007;SDS011;4049;49.468;11.200;2023-12-29T02:45:12;5.37;;;3.07;;
8007;SDS011;4049;49.468;11.200;2023-12-29T02:47:39;4.73;;;3.20;;
8007;SDS011;4049;49.468;11.200;2023-12-29T02:50:06;4.97;;;2.80;;
8007;SDS011;4049;49.468;11.200;2023-12-29T02:52:34;5.80;;;3.30;;
8007;SDS011;4049;49.468;11.200;2023-12-29T02:55:01;3.87;;;3.03;;
8007;SDS011;4049;49.468;11.200;2023-12-29T02:57:29;4.87;;;3.60;;
8007;SDS011;4049;49.468;11.200;2023-12-29T02:59:56;3.87;;;2.77;;
8007;SDS011;4049;49.468;11.200;2023-12-29T03:02:23;5.10;;;3.60;;
8007;SDS011;4049;49.468;11.200;2023-12-29T03:04:50;4.67;;;3.10;;
8007;SDS011;4049;49.468;11.200;2023-12-29T03:07:17;5.03;;;3.30;;
8007;SDS011;4049;49.468;11.200;2023-12-29T03:09:43;4.20;;;3.33;;
8007;SDS011;4049;49.468;11.200;2023-12-29T03:12:10;4.77;;;3.50;;
8007;SDS011;4049;49.468;11.200;2023-12-29T03:14:38;4.17;;;3.23;;
8007;SDS011;4049;49.468;11.200;2023-12-29T03:17:05;4.73;;;3.57;;
8007;SDS011;4049;49.468;11.200;2023-12-29T03:19:32;5.07;;;3.40;;
8007;SDS011;4049;49.468;11.200;2023-12-29T03:21:59;4.23;;;3.20;;
8007;SDS011;4049;49.468;11.200;2023-12-29T03:24:25;5.63;;;3.43;;
8007;SDS011;4049;49.468;11.200;2023-12-29T03:26:52;5.37;;;3.47;;
8007;SDS011;4049;49.468;11.200;2023-12-29T03:29:19;4.90;;;3.60;;
8007;SDS011;4049;49.468;11.200;2023-12-29T03:31:47;5.27;;;3.20;;
8007;SDS011;4049;49.468;11.200;2023-12-29T03:34:14;5.67;;;3.13;;
8007;SDS011;4049;49.468;11.200;2023-12-29T03:36:41;4.07;;;2.93;;
8007;SDS011;4049;49.468;11.200;2023-12-29T03:39:08;5.27;;;3.60;;
8007;SDS011;4049;49.468;11.200;2023-12-29T03:41:34;4.30;;;3.27;;
8007;SDS011;4049;49.468;11.200;2023-12-29T03:44:01;4.10;;;3.00;;
8007;SDS011;4049;49.468;11.200;2023-12-29T03:46:28;3.83;;;3.10;;
8007;SDS011;4049;49.468;11.200;2023-12-29T03:48:56;4.17;;;3.17;;
8007;SDS011;4049;49.468;11.200;2023-12-29T03:51:23;5.23;;;3.33;;
8007;SDS011;4049;49.468;11.200;2023-12-29T03:53:50;5.43;;;3.73;;
8007;SDS011;4049;49.468;11.200;2023-12-29T03:56:17;4.70;;;3.40;;
8007;SDS011;4049;49.468;11.200;2023-12-29T03:58:44;8.03;;;3.40;;
8007;SDS011;4049;49.468;11.200;2023-12-29T04:01:12;5.20;;;3.53;;
8007;SDS011;4049;49.468;11.200;2023-12-29T04:03:40;4.13;;;3.20;;
8007;SDS011;4049;49.468;11.200;2023-12-29T04:06:09;5.93;;;3.70;;
8007;SDS011;4049;49.468;11.200;2023-12-29T04:08:36;6.23;;;3.63;;
8007;SDS011;4049;49.468;11.200;2023-12-29T04:11:04;5.07;;;3.23;;
8007;SDS011;4049;49.468;11.200;2023-12-29T04:13:31;7.43;;;3.50;;
8007;SDS011;4049;49.468;11.200;2023-12-29T04:15:58;5.00;;;3.47;;
8007;SDS011;4049;49.468;11.200;2023-12-29T04:18:25;5.03;;;3.50;;
8007;SDS011;4049;49.468;11.200;2023-12-29T04:20:53;4.63;;;3.40;;
8007;SDS011;4049;49.468;11.200;2023-12-29T04:23:21;3.77;;;3.33;;
8007;SDS011;4049;49.468;11.200;2023-12-29T04:25:48;5.03;;;3.70;;
8007;SDS011;4049;49.468;11.200;2023-12-29T04:28:15;6.23;;;3.57;;
8007;SDS011;4049;49.468;11.200;2023-12-29T04:30:42;4.23;;;3.07;;
8007;SDS011;4049;49.468;11.200;2023-12-29T04:33:08;5.43;;;3.77;;
8007;SDS011;4049;49.468;11.200;2023-12-29T04:35:35;4.17;;;3.37;;
8007;SDS011;4049;49.468;11.200;2023-12-29T04:38:02;5.13;;;3.40;;
8007;SDS011;4049;49.468;11.200;2023-12-29T04:40:30;5.50;;;3.80;;
8007;SDS011;4049;49.468;11.200;2023-12-29T04:42:57;4.57;;;3.47;;
8007;SDS011;4049;49.468;11.200;2023-12-29T04:45:24;3.73;;;3.20;;
8007;SDS011;4049;49.468;11.200;2023-12-29T04:47:51;4.10;;;3.37;;
8007;SDS011;4049;49.468;11.200;2023-12-29T04:50:17;3.57;;;3.00;;
8007;SDS011;4049;49.468;11.200;2023-12-29T04:52:44;4.87;;;3.50;;
8007;SDS011;4049;49.468;11.200;2023-12-29T04:55:11;4.37;;;3.60;;
8007;SDS011;4049;49.468;11.200;2023-12-29T04:57:40;5.27;;;3.87;;
8007;SDS011;4049;49.468;11.200;2023-12-29T05:00:07;3.73;;;3.10;;
8007;SDS011;4049;49.468;11.200;2023-12-29T05:02:34;6.53;;;3.20;;
8007;SDS011;4049;49.468;11.200;2023-12-29T05:05:01;3.60;;;3.07;;
8007;SDS011;4049;49.468;11.200;2023-12-29T05:07:28;5.10;;;3.63;;
8007;SDS011;4049;49.468;11.200;2023-12-29T05:09:54;6.77;;;3.60;;
8007;SDS011;4049;49.468;11.200;2023-12-29T05:12:21;4.40;;;3.20;;
8007;SDS011;4049;49.468;11.200;2023-12-29T05:14:49;4.90;;;3.70;;
8007;SDS011;4049;49.468;11.200;2023-12-29T05:17:16;4.73;;;3.67;;
8007;SDS011;4049;49.468;11.200;2023-12-29T05:19:43;6.07;;;3.57;;
8007;SDS011;4049;49.468;11.200;2023-12-29T05:22:10;3.77;;;2.87;;
8007;SDS011;4049;49.468;11.200;2023-12-29T05:24:41;4.93;;;3.50;;
8007;SDS011;4049;49.468;11.200;2023-12-29T05:27:10;5.17;;;3.37;;
8007;SDS011;4049;49.468;11.200;2023-12-29T05:29:37;6.97;;;3.70;;
8007;SDS011;4049;49.468;11.200;2023-12-29T05:32:05;5.50;;;3.20;;
8007;SDS011;4049;49.468;11.200;2023-12-29T05:34:33;4.77;;;3.50;;
8007;SDS011;4049;49.468;11.200;2023-12-29T05:37:00;5.33;;;3.40;;
8007;SDS011;4049;49.468;11.200;2023-12-29T05:39:27;4.87;;;3.70;;
8007;SDS011;4049;49.468;11.200;2023-12-29T05:41:54;6.50;;;3.50;;
8007;SDS011;4049;49.468;11.200;2023-12-29T05:44:21;4.07;;;3.17;;
8007;SDS011;4049;49.468;11.200;2023-12-29T05:46:48;5.57;;;3.57;;
8007;SDS011;4049;49.468;11.200;2023-12-29T05:49:17;4.73;;;3.73;;
8007;SDS011;4049;49.468;11.200;2023-12-29T05:51:44;4.40;;;3.40;;
8007;SDS011;4049;49.468;11.200;2023-12-29T05:54:11;4.40;;;3.23;;
8007;SDS011;4049;49.468;11.200;2023-12-29T05:56:38;6.13;;;3.90;;
8007;SDS011;4049;49.468;11.200;2023-12-29T05:59:05;4.83;;;3.43;;
8007;SDS011;4049;49.468;11.200;2023-12-29T06:01:32;4.67;;;3.47;;
8007;SDS011;4049;49.468;11.200;2023-12-29T06:03:58;5.37;;;3.60;;
8007;SDS011;4049;49.468;11.200;2023-12-29T06:06:27;5.20;;;3.30;;
8007;SDS011;4049;49.468;11.200;2023-12-29T06:08:53;5.93;;;3.67;;
8007;SDS011;4049;49.468;11.200;2023-12-29T06:11:20;6.13;;;3.93;;
8007;SDS011;4049;49.468;11.200;2023-12-29T06:13:47;5.03;;;3.40;;
8007;SDS011;4049;49.468;11.200;2023-12-29T06:16:18;5.13;;;3.60;;
8007;SDS011;4049;49.468;11.200;2023-12-29T06:18:45;5.80;;;4.10;;
8007;SDS011;4049;49.468;11.200;2023-12-29T06:21:12;6.17;;;3.50;;
8007;SDS011;4049;49.468;11.200;2023-12-29T06:23:40;5.57;;;3.93;;
8007;SDS011;4049;49.468;11.200;2023-12-29T06:26:13;3.93;;;3.47;;
8007;SDS011;4049;49.468;11.200;2023-12-29T06:28:41;4.37;;;3.50;;
8007;SDS011;4049;49.468;11.200;2023-12-29T06:31:07;4.40;;;3.70;;
8007;SDS011;4049;49.468;11.200;2023-12-29T06:33:34;5.57;;;3.70;;
8007;SDS011;4049;49.468;11.200;2023-12-29T06:36:01;6.40;;;4.00;;
8007;SDS011;4049;49.468;11.200;2023-12-29T06:38:28;4.43;;;3.50;;
8007;SDS011;4049;49.468;11.200;2023-12-29T06:40:57;6.30;;;3.87;;
8007;SDS011;4049;49.468;11.200;2023-12-29T06:43:23;5.07;;;3.60;;
8007;SDS011;4049;49.468;11.200;2023-12-29T06:45:50;5.30;;;3.77;;
8007;SDS011;4049;49.468;11.200;2023-12-29T06:48:17;3.93;;;3.50;;
8007;SDS011;4049;49.468;11.200;2023-12-29T06:50:44;6.70;;;3.90;;
8007;SDS011;4049;49.468;11.200;2023-12-29T06:53:11;5.37;;;3.57;;
8007;SDS011;4049;49.468;11.200;2023-12-29T06:55:38;7.53;;;4.27;;
8007;SDS011;4049;49.468;11.200;2023-12-29T06:58:06;5.27;;;3.80;;
8007;SDS011;4049;49.468;11.200;2023-12-29T07:00:33;4.77;;;3.87;;
8007;SDS011;4049;49.468;11.200;2023-12-29T07:03:00;4.97;;;3.73;;
8007;SDS011;4049;49.468;11.200;2023-12-29T07:05:27;5.53;;;3.73;;
8007;SDS011;4049;49.468;11.200;2023-12-29T07:07:54;5.07;;;3.43;;
8007;SDS011;4049;49.468;11.200;2023-12-29T07:10:21;4.37;;;3.37;;
8007;SDS011;4049;49.468;11.200;2023-12-29T07:12:48;6.23;;;3.83;;
8007;SDS011;4049;49.468;11.200;2023-12-29T07:15:16;4.40;;;3.30;;
8007;SDS011;4049;49.468;11.200;2023-12-29T07:17:43;5.10;;;3.07;;
8007;SDS011;4049;49.468;11.200;2023-12-29T07:20:11;3.23;;;2.93;;
8007;SDS011;4049;49.468;11.200;2023-12-29T07:22:38;5.93;;;3.30;;
8007;SDS011;4049;49.468;11.200;2023-12-29T07:25:05;3.67;;;3.27;;
8007;SDS011;4049;49.468;11.200;2023-12-29T07:27:32;4.00;;;3.17;;
8007;SDS011;4049;49.468;11.200;2023-12-29T07:29:59;4.87;;;2.93;;
8007;SDS011;4049;49.468;11.200;2023-12-29T07:32:27;5.07;;;3.43;;
8007;SDS011;4049;49.468;11.200;2023-12-29T07:34:54;4.83;;;2.77;;
8007;SDS011;4049;49.468;11.200;2023-12-29T07:37:22;3.77;;;3.00;;
8007;SDS011;4049;49.468;11.200;2023-12-29T07:39:49;4.07;;;3.30;;
8007;SDS011;4049;49.468;11.200;2023-12-29T07:42:16;6.30;;;3.07;;
8007;SDS011;4049;49.468;11.200;2023-12-29T07:44:44;5.00;;;3.20;;
8007;SDS011;4049;49.468;11.200;2023-12-29T07:47:11;4.23;;;2.97;;
8007;SDS011;4049;49.468;11.200;2023-12-29T07:49:40;4.93;;;3.37;;
8007;SDS011;4049;49.468;11.200;2023-12-29T07:52:07;5.03;;;3.00;;
8007;SDS011;4049;49.468;11.200;2023-12-29T07:54:34;4.03;;;2.87;;
8007;SDS011;4049;49.468;11.200;2023-12-29T07:57:01;4.23;;;2.93;;
8007;SDS011;4049;49.468;11.200;2023-12-29T07:59:28;4.37;;;3.00;;
8007;SDS011;4049;49.468;11.200;2023-12-29T08:01:55;5.53;;;3.30;;
8007;SDS011;4049;49.468;11.200;2023-12-29T08:04:23;4.30;;;3.10;;
8007;SDS011;4049;49.468;11.200;2023-12-29T08:06:51;5.80;;;3.57;;
8007;SDS011;4049;49.468;11.200;2023-12-29T08:09:18;3.20;;;2.83;;
8007;SDS011;4049;49.468;11.200;2023-12-29T08:11:46;4.40;;;3.27;;
8007;SDS011;4049;49.468;11.200;2023-12-29T08:14:13;3.77;;;3.00;;
8007;SDS011;4049;49.468;11.200;2023-12-29T08:16:40;3.80;;;3.00;;
8007;SDS011;4049;49.468;11.200;2023-12-29T08:19:07;5.53;;;3.30;;
8007;SDS011;4049;49.468;11.200;2023-12-29T08:21:35;3.90;;;3.27;;
8007;SDS011;4049;49.468;11.200;2023-12-29T08:24:03;6.03;;;3.53;;
8007;SDS011;4049;49.468;11.200;2023-12-29T08:26:30;4.37;;;3.03;;
8007;SDS011;4049;49.468;11.200;2023-12-29T08:28:57;3.67;;;3.13;;
8007;SDS011;4049;49.468;11.200;2023-12-29T08:31:24;4.03;;;3.30;;
8007;SDS011;4049;49.468;11.200;2023-12-29T08:33:52;5.33;;;3.10;;
8007;SDS011;4049;49.468;11.200;2023-12-29T08:36:20;5.07;;;3.00;;
8007;SDS011;4049;49.468;11.200;2023-12-29T08:38:47;4.67;;;3.00;;
8007;SDS011;4049;49.468;11.200;2023-12-29T08:41:15;4.73;;;3.30;;
8007;SDS011;4049;49.468;11.200;2023-12-29T08:43:43;3.83;;;2.97;;
8007;SDS011;4049;49.468;11.200;2023-12-29T08:46:10;3.83;;;2.87;;
8007;SDS011;4049;49.468;11.200;2023-12-29T08:48:37;5.30;;;3.23;;
8007;SDS011;4049;49.468;11.200;2023-12-29T08:51:04;3.90;;;2.63;;
8007;SDS011;4049;49.468;11.200;2023-12-29T08:53:31;4.57;;;2.87;;
8007;SDS011;4049;49.468;11.200;2023-12-29T08:56:02;3.90;;;2.97;;
8007;SDS011;4049;49.468;11.200;2023-12-29T08:58:31;4.10;;;2.73;;
8007;SDS011;4049;49.468;11.200;2023-12-29T09:00:58;5.80;;;4.27;;
8007;SDS011;4049;49.468;11.200;2023-12-29T09:03:25;5.87;;;4.50;;
8007;SDS011;4049;49.468;11.200;2023-12-29T09:05:52;4.30;;;3.13;;
8007;SDS011;4049;49.468;11.200;2023-12-29T09:08:19;5.33;;;2.47;;
8007;SDS011;4049;49.468;11.200;2023-12-29T09:10:46;2.83;;;2.53;;
8007;SDS011;4049;49.468;11.200;2023-12-29T09:13:13;3.27;;;2.07;;
8007;SDS011;4049;49.468;11.200;2023-12-29T09:15:41;3.70;;;2.00;;
8007;SDS011;4049;49.468;11.200;2023-12-29T09:18:10;2.77;;;2.20;;
8007;SDS011;4049;49.468;11.200;2023-12-29T09:20:37;2.10;;;1.90;;
8007;SDS011;4049;49.468;11.200;2023-12-29T09:23:04;2.30;;;1.93;;
8007;SDS011;4049;49.468;11.200;2023-12-29T09:25:31;2.13;;;1.93;;
8007;SDS011;4049;49.468;11.200;2023-12-29T09:27:58;2.40;;;1.87;;
8007;SDS011;4049;49.468;11.200;2023-12-29T09:30:25;5.50;;;4.63;;
8007;SDS011;4049;49.468;11.200;2023-12-29T09:32:53;6.00;;;4.63;;
8007;SDS011;4049;49.468;11.200;2023-12-29T09:35:20;3.57;;;2.50;;
8007;SDS011;4049;49.468;11.200;2023-12-29T09:37:47;1.80;;;1.67;;
8007;SDS011;4049;49.468;11.200;2023-12-29T09:40:14;2.30;;;1.90;;
8007;SDS011;4049;49.468;11.200;2023-12-29T09:42:43;4.83;;;2.40;;
8007;SDS011;4049;49.468;11.200;2023-12-29T09:45:11;2.77;;;2.20;;
8007;SDS011;4049;49.468;11.200;2023-12-29T09:47:38;2.37;;;1.77;;
8007;SDS011;4049;49.468;11.200;2023-12-29T09:50:09;1.73;;;1.50;;
8007;SDS011;4049;49.468;11.200;2023-12-29T09:52:37;3.20;;;1.67;;
8007;SDS011;4049;49.468;11.200;2023-12-29T09:55:06;1.73;;;1.63;;
8007;SDS011;4049;49.468;11.200;2023-12-29T09:57:35;2.10;;;1.70;;
8007;SDS011;4049;49.468;11.200;2023-12-29T10:00:03;2.67;;;1.97;;
8007;SDS011;4049;49.468;11.200;2023-12-29T10:02:30;2.20;;;1.87;;
8007;SDS011;4049;49.468;11.200;2023-12-29T10:04:59;2.60;;;2.07;;
8007;SDS011;4049;49.468;11.200;2023-12-29T10:07:31;4.20;;;2.70;;
8007;SDS011;4049;49.468;11.200;2023-12-29T10:10:02;4.37;;;3.20;;
8007;SDS011;4049;49.468;11.200;2023-12-29T10:12:31;3.73;;;2.00;;
8007;SDS011;4049;49.468;11.200;2023-12-29T10:15:01;1.80;;;1.50;;
8007;SDS011;4049;49.468;11.200;2023-12-29T10:17:35;2.23;;;1.97;;
8007;SDS011;4049;49.468;11.200;2023-12-29T10:20:12;2.93;;;2.30;;
8007;SDS011;4049;49.468;11.200;2023-12-29T10:22:49;5.40;;;2.63;;
8007;SDS011;4049;49.468;11.200;2023-12-29T10:25:20;3.90;;;2.17;;
8007;SDS011;4049;49.468;11.200;2023-12-29T10:27:49;3.20;;;2.30;;
8007;SDS011;4049;49.468;11.200;2023-12-29T10:30:17;3.73;;;2.70;;
8007;SDS011;4049;49.468;11.200;2023-12-29T10:32:48;5.50;;;3.43;;
8007;SDS011;4049;49.468;11.200;2023-12-29T10:35:15;5.43;;;2.97;;
8007;SDS011;4049;49.468;11.200;2023-12-29T10:37:43;4.20;;;3.20;;
8007;SDS011;4049;49.468;11.200;2023-12-29T10:40:12;3.63;;;3.13;;
8007;SDS011;4049;49.468;11.200;2023-12-29T10:42:51;4.27;;;3.20;;
8007;SDS011;4049;49.468;11.200;2023-12-29T10:45:18;5.13;;;3.67;;
8007;SDS011;4049;49.468;11.200;2023-12-29T10:47:45;4.23;;;3.27;;
8007;SDS011;4049;49.468;11.200;2023-12-29T10:50:12;6.57;;;3.27;;
8007;SDS011;4049;49.468;11.200;2023-12-29T10:52:39;6.23;;;3.77;;
8007;SDS011;4049;49.468;11.200;2023-12-29T10:55:07;4.70;;;3.60;;
8007;SDS011;4049;49.468;11.200;2023-12-29T10:57:37;3.97;;;3.37;;
8007;SDS011;4049;49.468;11.200;2023-12-29T11:00:05;4.73;;;3.70;;
8007;SDS011;4049;49.468;11.200;2023-12-29T11:02:33;4.83;;;3.77;;
8007;SDS011;4049;49.468;11.200;2023-12-29T11:05:03;5.20;;;3.70;;
8007;SDS011;4049;49.468;11.200;2023-12-29T11:07:31;7.27;;;4.50;;
8007;SDS011;4049;49.468;11.200;2023-12-29T11:10:00;4.90;;;4.07;;
8007;SDS011;4049;49.468;11.200;2023-12-29T11:12:29;4.83;;;3.60;;
8007;SDS011;4049;49.468;11.200;2023-12-29T11:15:00;5.67;;;3.67;;
8007;SDS011;4049;49.468;11.200;2023-12-29T11:17:29;5.90;;;3.37;;
8007;SDS011;4049;49.468;11.200;2023-12-29T11:19:58;4.97;;;3.67;;
8007;SDS011;4049;49.468;11.200;2023-12-29T11:22:27;4.27;;;3.23;;
8007;SDS011;4049;49.468;11.200;2023-12-29T11:24:55;5.00;;;3.43;;
8007;SDS011;4049;49.468;11.200;2023-12-29T11:27:25;5.73;;;3.43;;
8007;SDS011;4049;49.468;11.200;2023-12-29T11:29:55;5.37;;;3.40;;
8007;SDS011;4049;49.468;11.200;2023-12-29T11:32:24;4.33;;;3.13;;
8007;SDS011;4049;49.468;11.200;2023-12-29T11:35:02;5.47;;;3.50;;
8007;SDS011;4049;49.468;11.200;2023-12-29T11:37:38;5.10;;;3.63;;
8007;SDS011;4049;49.468;11.200;2023-12-29T11:40:22;4.33;;;3.37;;
8007;SDS011;4049;49.468;11.200;2023-12-29T11:42:53;6.03;;;3.40;;
8007;SDS011;4049;49.468;11.200;2023-12-29T11:45:23;4.93;;;3.10;;
8007;SDS011;4049;49.468;11.200;2023-12-29T11:47:53;4.57;;;3.67;;
8007;SDS011;4049;49.468;11.200;2023-12-29T11:50:27;4.10;;;3.30;;
8007;SDS011;4049;49.468;11.200;2023-12-29T11:52:56;4.53;;;2.80;;
8007;SDS011;4049;49.468;11.200;2023-12-29T11:55:27;4.60;;;2.83;;
8007;SDS011;4049;49.468;11.200;2023-12-29T11:57:56;4.10;;;2.73;;
8007;SDS011;4049;49.468;11.200;2023-12-29T12:00:42;4.23;;;2.90;;
8007;SDS011;4049;49.468;11.200;2023-12-29T12:03:15;3.70;;;3.03;;
8007;SDS011;4049;49.468;11.200;2023-12-29T12:05:44;4.30;;;2.60;;
8007;SDS011;4049;49.468;11.200;2023-12-29T12:08:11;3.80;;;2.93;;
8007;SDS011;4049;49.468;11.200;2023-12-29T12:10:56;3.87;;;2.70;;
8007;SDS011;4049;49.468;11.200;2023-12-29T12:13:43;3.20;;;2.50;;
8007;SDS011;4049;49.468;11.200;2023-12-29T12:19:12;4.43;;;3.53;;
8007;SDS011;4049;49.468;11.200;2023-12-29T12:21:40;6.57;;;3.33;;
8007;SDS011;4049;49.468;11.200;2023-12-29T12:24:07;5.40;;;3.30;;
8007;SDS011;4049;49.468;11.200;2023-12-29T12:26:34;4.33;;;3.00;;
8007;SDS011;4049;49.468;11.200;2023-12-29T12:29:01;5.33;;;2.53;;
8007;SDS011;4049;49.468;11.200;2023-12-29T12:31:29;2.57;;;2.10;;
8007;SDS011;4049;49.468;11.200;2023-12-29T12:33:56;5.13;;;4.27;;
8007;SDS011;4049;49.468;11.200;2023-12-29T12:36:24;3.60;;;2.80;;
8007;SDS011;4049;49.468;11.200;2023-12-29T12:38:52;4.27;;;3.30;;
8007;SDS011;4049;49.468;11.200;2023-12-29T12:41:19;6.53;;;5.50;;
8007;SDS011;4049;49.468;11.200;2023-12-29T12:43:49;3.03;;;2.50;;
8007;SDS011;4049;49.468;11.200;2023-12-29T12:46:26;2.20;;;1.60;;
8007;SDS011;4049;49.468;11.200;2023-12-29T12:48:53;1.57;;;1.47;;
8007;SDS011;4049;49.468;11.200;2023-12-29T12:51:20;1.80;;;1.67;;
8007;SDS011;4049;49.468;11.200;2023-12-29T12:53:49;1.83;;;1.60;;
8007;SDS011;4049;49.468;11.200;2023-12-29T12:56:17;2.17;;;1.67;;
8007;SDS011;4049;49.468;11.200;2023-12-29T12:58:46;2.10;;;1.60;;
8007;SDS011;4049;49.468;11.200;2023-12-29T13:01:13;1.70;;;1.53;;
8007;SDS011;4049;49.468;11.200;2023-12-29T13:03:39;4.17;;;2.40;;
8007;SDS011;4049;49.468;11.200;2023-12-29T13:06:07;3.20;;;1.47;;
8007;SDS011;4049;49.468;11.200;2023-12-29T13:08:34;7.50;;;3.97;;
8007;SDS011;4049;49.468;11.200;2023-12-29T13:11:02;21.33;;;9.77;;
8007;SDS011;4049;49.468;11.200;2023-12-29T13:13:37;1.70;;;1.50;;
8007;SDS011;4049;49.468;11.200;2023-12-29T13:16:05;6.07;;;3.43;;
8007;SDS011;4049;49.468;11.200;2023-12-29T13:18:32;2.23;;;1.50;;
8007;SDS011;4049;49.468;11.200;2023-12-29T13:21:00;7.00;;;3.47;;
8007;SDS011;4049;49.468;11.200;2023-12-29T13:23:29;5.67;;;2.60;;
8007;SDS011;4049;49.468;11.200;2023-12-29T13:25:56;2.20;;;2.00;;
8007;SDS011;4049;49.468;11.200;2023-12-29T13:28:26;2.80;;;2.07;;
8007;SDS011;4049;49.468;11.200;2023-12-29T13:30:54;2.90;;;1.97;;
8007;SDS011;4049;49.468;11.200;2023-12-29T13:33:24;2.90;;;1.90;;
8007;SDS011;4049;49.468;11.200;2023-12-29T13:35:56;2.03;;;1.60;;
8007;SDS011;4049;49.468;11.200;2023-12-29T13:38:33;2.20;;;1.80;;
8007;SDS011;4049;49.468;11.200;2023-12-29T13:41:09;1.30;;;1.17;;
8007;SDS011;4049;49.468;11.200;2023-12-29T13:43:40;3.80;;;1.90;;
8007;SDS011;4049;49.468;11.200;2023-12-29T13:46:08;2.30;;;1.57;;
8007;SDS011;4049;49.468;11.200;2023-12-29T13:48:37;2.30;;;2.10;;
8007;SDS011;4049;49.468;11.200;2023-12-29T13:51:05;1.70;;;1.60;;
8007;SDS011;4049;49.468;11.200;2023-12-29T13:53:32;3.63;;;2.40;;
8007;SDS011;4049;49.468;11.200;2023-12-29T13:56:05;2.20;;;1.70;;
8007;SDS011;4049;49.468;11.200;2023-12-29T13:58:33;1.80;;;1.50;;
8007;SDS011;4049;49.468;11.200;2023-12-29T14:01:01;1.50;;;1.30;;
8007;SDS011;4049;49.468;11.200;2023-12-29T14:03:34;1.60;;;1.23;;
8007;SDS011;4049;49.468;11.200;2023-12-29T14:06:08;1.60;;;1.10;;
8007;SDS011;4049;49.468;11.200;2023-12-29T14:08:39;1.20;;;1.10;;
8007;SDS011;4049;49.468;11.200;2023-12-29T14:11:07;1.60;;;1.40;;
8007;SDS011;4049;49.468;11.200;2023-12-29T14:13:34;1.87;;;1.20;;
8007;SDS011;4049;49.468;11.200;2023-12-29T14:16:03;1.60;;;1.33;;
8007;SDS011;4049;49.468;11.200;2023-12-29T14:18:39;1.50;;;1.30;;
8007;SDS011;4049;49.468;11.200;2023-12-29T14:21:21;2.00;;;1.40;;
8007;SDS011;4049;49.468;11.200;2023-12-29T14:24:02;1.80;;;1.57;;
8007;SDS011;4049;49.468;11.200;2023-12-29T14:26:33;1.63;;;1.40;;
8007;SDS011;4049;49.468;11.200;2023-12-29T14:29:03;3.23;;;1.70;;
8007;SDS011;4049;49.468;11.200;2023-12-29T14:31:33;2.47;;;1.67;;
8007;SDS011;4049;49.468;11.200;2023-12-29T14:34:02;2.73;;;2.13;;
8007;SDS011;4049;49.468;11.200;2023-12-29T14:36:29;3.60;;;2.43;;
8007;SDS011;4049;49.468;11.200;2023-12-29T14:38:56;2.97;;;2.30;;
8007;SDS011;4049;49.468;11.200;2023-12-29T14:41:23;2.90;;;2.23;;
8007;SDS011;4049;49.468;11.200;2023-12-29T14:43:50;2.37;;;1.97;;
8007;SDS011;4049;49.468;11.200;2023-12-29T14:46:17;1.80;;;1.50;;
8007;SDS011;4049;49.468;11.200;2023-12-29T14:48:45;1.47;;;1.37;;
8007;SDS011;4049;49.468;11.200;2023-12-29T14:51:12;2.33;;;1.63;;
8007;SDS011;4049;49.468;11.200;2023-12-29T14:53:39;2.70;;;1.90;;
8007;SDS011;4049;49.468;11.200;2023-12-29T14:56:06;3.63;;;1.93;;
8007;SDS011;4049;49.468;11.200;2023-12-29T14:58:33;2.90;;;1.80;;
8007;SDS011;4049;49.468;11.200;2023-12-29T15:01:01;1.50;;;1.40;;
8007;SDS011;4049;49.468;11.200;2023-12-29T15:03:28;2.80;;;1.63;;
8007;SDS011;4049;49.468;11.200;2023-12-29T15:05:57;1.57;;;1.40;;
8007;SDS011;4049;49.468;11.200;2023-12-29T15:08:24;1.43;;;1.30;;